createdAt,value
2022-08-09T00:02:36.254Z,100289.91
2022-08-09T00:08:48.456Z,100288.94
2022-08-09T00:14:56.678Z,100286.06
2022-08-09T00:20:59.195Z,100281.00
2022-08-09T00:27:01.998Z,100281.09
2022-08-09T00:33:04.103Z,100282.41
2022-08-09T00:39:06.567Z,100283.50
2022-08-09T00:45:20.264Z,100288.72
2022-08-09T00:51:23.205Z,100281.22
2022-08-09T00:57:34.827Z,100282.88
2022-08-09T01:04:30.178Z,100292.66
2022-08-09T01:11:15.013Z,100292.25
2022-08-09T01:17:30.254Z,100292.00
2022-08-09T01:24:05.329Z,100299.06
2022-08-09T01:30:35.506Z,100297.41
2022-08-09T01:36:33.508Z,100301.38
2022-08-09T01:42:38.950Z,100295.94
2022-08-09T01:48:44.229Z,100301.44
2022-08-09T01:54:56.630Z,100300.97
2022-08-09T02:01:01.101Z,100298.66
2022-08-09T02:07:18.231Z,100287.00
2022-08-09T02:13:40.841Z,100298.81
2022-08-09T02:19:44.461Z,100287.59
2022-08-09T02:25:55.560Z,100294.66
2022-08-09T02:32:03.838Z,100296.25
2022-08-09T02:38:10.599Z,100302.66
2022-08-09T02:44:30.568Z,100299.59
2022-08-09T02:50:56.384Z,100295.63
2022-08-09T02:57:14.072Z,100308.75
2022-08-09T03:03:59.591Z,100307.75
2022-08-09T03:09:54.277Z,100315.50
2022-08-09T03:16:06.573Z,100312.19
2022-08-09T03:22:12.172Z,100309.47
2022-08-09T03:28:29.035Z,100316.47
2022-08-09T03:34:32.274Z,100309.59
2022-08-09T03:40:34.374Z,100306.25
2022-08-09T03:46:36.782Z,100318.16
2022-08-09T03:52:42.484Z,100318.50
2022-08-09T03:58:44.913Z,100328.53
2022-08-09T04:04:48.295Z,100318.91
2022-08-09T04:10:53.043Z,100335.16
2022-08-09T04:16:57.291Z,100345.78
2022-08-09T04:22:59.633Z,100342.06
2022-08-09T04:29:07.869Z,100349.59
2022-08-09T04:35:13.807Z,100354.56
2022-08-09T04:41:17.507Z,100347.94
2022-08-09T04:47:19.515Z,100353.97
2022-08-09T04:53:22.528Z,100358.78
2022-08-09T04:59:24.959Z,100364.66
2022-08-09T05:05:52.617Z,100365.88
2022-08-09T05:11:55.020Z,100370.09
2022-08-09T05:18:37.603Z,100366.53
2022-08-09T05:24:21.139Z,100371.91
2022-08-09T05:30:26.290Z,100379.38
2022-08-09T05:36:33.145Z,100376.81
2022-08-09T05:42:35.547Z,100383.66
2022-08-09T05:48:39.459Z,100384.78
2022-08-09T05:54:42.390Z,100385.28
2022-08-09T06:00:44.432Z,100388.50
2022-08-09T06:06:49.918Z,100390.19
2022-08-09T06:13:03.072Z,100397.97
2022-08-09T06:19:14.852Z,100405.41
2022-08-09T06:25:17.031Z,100413.53
2022-08-09T06:31:31.428Z,100420.28
2022-08-09T06:37:53.064Z,100414.31
2022-08-09T06:44:04.005Z,100417.19
2022-08-09T06:50:13.921Z,100427.44
2022-08-09T06:56:17.586Z,100426.75
2022-08-09T07:02:20.592Z,100418.88
2022-08-09T07:08:24.794Z,100420.31
2022-08-09T07:14:27.347Z,100427.81
2022-08-09T07:20:29.397Z,100424.22
2022-08-09T07:26:31.613Z,100432.03
2022-08-09T07:32:34.661Z,100425.41
2022-08-09T07:38:36.989Z,100427.78
2022-08-09T07:44:51.823Z,100435.28
2022-08-09T07:51:10.215Z,100423.09
2022-08-09T07:57:17.681Z,100420.03
2022-08-09T08:03:20.349Z,100419.50
2022-08-09T08:09:36.473Z,100429.84
2022-08-09T08:15:46.563Z,100423.25
2022-08-09T08:21:53.160Z,100421.09
2022-08-09T08:27:55.214Z,100431.03
2022-08-09T08:34:00.104Z,100429.69
2022-08-09T08:40:06.429Z,100436.22
2022-08-09T08:46:32.151Z,100424.34
2022-08-09T08:52:57.683Z,100420.13
2022-08-09T08:58:55.662Z,100406.13
2022-08-09T09:05:06.249Z,100408.69
2022-08-09T09:11:17.689Z,100402.44
2022-08-09T09:17:21.858Z,100400.19
2022-08-09T09:23:49.943Z,100402.69
2022-08-09T09:30:26.246Z,100402.53
2022-08-09T09:36:47.043Z,100413.69
2022-08-09T09:42:57.571Z,100407.28
2022-08-09T09:49:10.355Z,100399.41
2022-08-09T09:55:23.828Z,100397.94
2022-08-09T10:01:38.231Z,100400.47
2022-08-09T10:08:10.823Z,100405.19
2022-08-09T10:14:04.885Z,100402.56
2022-08-09T10:20:26.640Z,100394.16
2022-08-09T10:26:34.848Z,100389.25
2022-08-09T10:32:40.114Z,100388.94
2022-08-09T10:38:56.825Z,100399.72
2022-08-09T10:45:10.705Z,100389.72
2022-08-09T10:51:52.799Z,100392.28
2022-08-09T10:58:00.353Z,100401.34
2022-08-09T11:04:30.631Z,100396.41
2022-08-09T11:10:56.021Z,100401.66
2022-08-09T11:16:58.744Z,100402.81
2022-08-09T11:23:03.017Z,100407.16
2022-08-09T11:30:04.327Z,100401.13
2022-08-09T11:36:08.451Z,100392.38
2022-08-09T11:42:41.010Z,100392.47
2022-08-09T11:48:55.895Z,100394.38
2022-08-09T11:55:52.261Z,100379.19
2022-08-09T12:02:16.035Z,100382.94
2022-08-09T12:08:20.086Z,100383.22
2022-08-09T12:14:40.461Z,100369.91
2022-08-09T12:20:50.936Z,100374.00
2022-08-09T12:28:58.338Z,100373.16
2022-08-09T12:33:23.697Z,100363.56
2022-08-09T12:40:41.677Z,100357.31
2022-08-09T12:46:49.234Z,100368.00
2022-08-09T12:53:09.429Z,100349.16
2022-08-09T12:59:20.000Z,100350.50
2022-08-09T13:05:25.470Z,100343.75
2022-08-09T13:11:33.747Z,100348.00
2022-08-09T13:18:02.791Z,100347.53
2022-08-09T13:24:42.214Z,100348.31
2022-08-09T13:31:10.942Z,100323.19
2022-08-09T13:36:48.828Z,100328.06
2022-08-09T13:42:51.170Z,100320.75
2022-08-09T13:48:53.148Z,100323.75
2022-08-09T13:55:00.496Z,100330.38
2022-08-09T14:01:04.183Z,100332.72
2022-08-09T14:07:09.899Z,100335.34
2022-08-09T14:13:21.810Z,100323.47
2022-08-09T14:19:33.559Z,100332.81
2022-08-09T14:25:42.644Z,100322.44
2022-08-09T14:31:50.196Z,100317.31
2022-08-09T14:38:02.813Z,100316.47
2022-08-09T14:44:06.730Z,100312.25
2022-08-09T14:50:09.299Z,100324.81
2022-08-09T14:56:13.140Z,100323.25
2022-08-09T15:02:15.861Z,100323.31
2022-08-09T15:08:19.002Z,100320.09
2022-08-09T15:14:21.010Z,100313.66
2022-08-09T15:22:00.540Z,100311.94
2022-08-09T15:26:46.901Z,100318.06
2022-08-09T15:32:49.323Z,100315.00
2022-08-09T15:38:53.468Z,100307.84
2022-08-09T15:45:03.231Z,100312.16
2022-08-09T15:51:11.597Z,100307.31
2022-08-09T15:57:34.213Z,100293.88
2022-08-09T16:03:41.782Z,100295.31
2022-08-09T16:09:57.681Z,100291.94
2022-08-09T16:16:13.549Z,100303.81
2022-08-09T16:22:20.751Z,100299.97
2022-08-09T16:28:25.965Z,100297.06
2022-08-09T16:34:28.742Z,100296.00
2022-08-09T16:40:40.929Z,100289.66
2022-08-09T16:46:55.165Z,100279.59
2022-08-09T16:52:57.872Z,100297.34
2022-08-09T16:59:06.685Z,100284.50
2022-08-09T17:05:19.726Z,100289.44
2022-08-09T17:11:24.509Z,100287.75
2022-08-09T17:17:50.954Z,100292.91
2022-08-09T17:24:21.348Z,100283.25
2022-08-09T17:30:15.424Z,100296.47
2022-08-09T17:36:18.657Z,100293.22
2022-08-09T17:42:41.302Z,100292.63
2022-08-09T17:48:51.777Z,100287.59
2022-08-09T17:54:55.269Z,100295.91
2022-08-09T18:00:59.055Z,100303.69
2022-08-09T18:07:04.650Z,100298.69
2022-08-09T18:13:43.271Z,100301.38
2022-08-09T18:20:57.185Z,100308.09
2022-08-09T18:25:57.655Z,100302.19
2022-08-09T18:32:00.213Z,100314.03
2022-08-09T18:38:02.218Z,100305.19
2022-08-09T18:44:13.083Z,100313.13
2022-08-09T18:50:15.861Z,100312.53
2022-08-09T18:56:20.091Z,100319.22
2022-08-09T19:02:32.374Z,100324.94
2022-08-09T19:08:35.097Z,100336.19
2022-08-09T19:14:43.526Z,100335.63
2022-08-09T19:20:45.657Z,100337.41
2022-08-09T19:26:58.778Z,100346.06
2022-08-09T19:33:00.761Z,100345.84
2022-08-09T19:39:05.451Z,100343.00
2022-08-09T19:45:08.556Z,100349.63
2022-08-09T19:51:10.549Z,100349.16
2022-08-09T19:57:12.498Z,100340.22
2022-08-09T20:04:08.228Z,100344.75
2022-08-09T20:09:45.009Z,100344.78
2022-08-09T20:16:33.204Z,100353.78
2022-08-09T20:22:10.193Z,100353.75
2022-08-09T20:28:24.422Z,100354.47
2022-08-09T20:34:30.128Z,100356.38
2022-08-09T20:40:32.227Z,100355.81
2022-08-09T20:46:43.020Z,100364.38
2022-08-09T20:52:46.939Z,100366.63
2022-08-09T20:58:54.728Z,100365.47
2022-08-09T21:05:50.981Z,100366.97
2022-08-09T21:18:24.967Z,100369.06
2022-08-09T21:24:08.826Z,100361.22
2022-08-09T21:30:13.366Z,100357.63
2022-08-09T21:36:25.825Z,100358.72
2022-08-09T21:42:30.578Z,100360.97
2022-08-09T21:48:32.892Z,100359.44
2022-08-09T21:54:34.896Z,100371.75
2022-08-09T22:00:37.181Z,100370.56
2022-08-09T22:06:40.130Z,100366.78
2022-08-09T22:12:49.763Z,100373.28
2022-08-09T22:18:54.264Z,100387.69
2022-08-09T22:26:06.754Z,100393.22
2022-08-09T22:31:19.604Z,100388.16
2022-08-09T22:37:23.988Z,100397.53
2022-08-09T22:44:03.749Z,100412.72
2022-08-09T22:49:53.949Z,100411.97
2022-08-09T22:56:29.415Z,100412.50
2022-08-09T23:02:20.248Z,100419.09
2022-08-09T23:08:41.157Z,100412.91
2022-08-09T23:14:43.104Z,100406.69
2022-08-09T23:20:46.256Z,100411.13
2022-08-09T23:26:48.231Z,100403.59
2022-08-09T23:32:50.220Z,100403.13
2022-08-09T23:38:52.235Z,100402.31
2022-08-09T23:44:54.195Z,100403.72
2022-08-09T23:50:56.190Z,100406.63
2022-08-09T23:56:58.492Z,100402.00
